Terminal Aerodrome Forecast
Issued by NWS Tuscon, AZ

Home | Current Version | Previous Version | Text Only | Print | Product List | Glossary On
Versions: 1 2 3 4 5 6 7 8 9 10 11 12 13
713
FTUS45 KTWC 052328
TAFDUG
TAF
KDUG 052328Z 0600/0624 05009KT P6SM SKC
     FM061200 36011KT P6SM SKC
     FM061700 10008KT P6SM SKC=

USA.gov is the U.S. government's official web portal to all federal, state and local government web resources and services.